sensor_id;sensor_type;location;lat;lon;timestamp;P1;durP1;ratioP1;P2;durP2;ratioP2
58972;SDS011;44750;52.040;7.472;2023-03-12T00:04:39;2.85;;;1.92;;
58972;SDS011;44750;52.040;7.472;2023-03-12T00:09:39;1.65;;;1.30;;
58972;SDS011;44750;52.040;7.472;2023-03-12T00:14:39;1.93;;;1.07;;
58972;SDS011;44750;52.040;7.472;2023-03-12T00:19:40;9.60;;;1.80;;
58972;SDS011;44750;52.040;7.472;2023-03-12T00:24:40;13.30;;;1.63;;
58972;SDS011;44750;52.040;7.472;2023-03-12T00:29:40;1.35;;;1.13;;
58972;SDS011;44750;52.040;7.472;2023-03-12T00:34:40;1.75;;;1.23;;
58972;SDS011;44750;52.040;7.472;2023-03-12T00:39:41;1.77;;;1.27;;
58972;SDS011;44750;52.040;7.472;2023-03-12T00:44:41;1.50;;;1.27;;
58972;SDS011;44750;52.040;7.472;2023-03-12T00:49:42;1.40;;;1.30;;
58972;SDS011;44750;52.040;7.472;2023-03-12T00:54:42;2.25;;;1.25;;
58972;SDS011;44750;52.040;7.472;2023-03-12T00:59:42;4.38;;;2.10;;
58972;SDS011;44750;52.040;7.472;2023-03-12T01:04:42;2.35;;;1.42;;
58972;SDS011;44750;52.040;7.472;2023-03-12T01:09:42;2.47;;;1.60;;
58972;SDS011;44750;52.040;7.472;2023-03-12T01:14:43;1.92;;;1.60;;
58972;SDS011;44750;52.040;7.472;2023-03-12T01:19:43;2.47;;;1.52;;
58972;SDS011;44750;52.040;7.472;2023-03-12T01:24:43;5.40;;;2.05;;
58972;SDS011;44750;52.040;7.472;2023-03-12T01:29:43;2.30;;;2.08;;
58972;SDS011;44750;52.040;7.472;2023-03-12T01:34:44;8.52;;;1.73;;
58972;SDS011;44750;52.040;7.472;2023-03-12T01:39:44;2.37;;;1.90;;
58972;SDS011;44750;52.040;7.472;2023-03-12T01:44:48;2.08;;;1.88;;
58972;SDS011;44750;52.040;7.472;2023-03-12T01:49:50;4.05;;;3.15;;
58972;SDS011;44750;52.040;7.472;2023-03-12T01:54:54;2.67;;;1.98;;
58972;SDS011;44750;52.040;7.472;2023-03-12T02:00:10;3.40;;;2.15;;
58972;SDS011;44750;52.040;7.472;2023-03-12T02:05:28;4.03;;;2.38;;
58972;SDS011;44750;52.040;7.472;2023-03-12T02:10:35;3.78;;;2.30;;
58972;SDS011;44750;52.040;7.472;2023-03-12T02:15:36;4.35;;;2.70;;
58972;SDS011;44750;52.040;7.472;2023-03-12T02:20:51;3.67;;;2.30;;
58972;SDS011;44750;52.040;7.472;2023-03-12T02:25:58;2.03;;;1.80;;
58972;SDS011;44750;52.040;7.472;2023-03-12T02:30:59;3.35;;;2.00;;
58972;SDS011;44750;52.040;7.472;2023-03-12T02:36:02;7.15;;;2.25;;
58972;SDS011;44750;52.040;7.472;2023-03-12T02:41:04;2.72;;;2.40;;
58972;SDS011;44750;52.040;7.472;2023-03-12T02:46:31;4.85;;;3.03;;
58972;SDS011;44750;52.040;7.472;2023-03-12T02:51:37;5.95;;;2.13;;
58972;SDS011;44750;52.040;7.472;2023-03-12T02:56:37;6.07;;;3.08;;
58972;SDS011;44750;52.040;7.472;2023-03-12T03:01:38;1.75;;;1.52;;
58972;SDS011;44750;52.040;7.472;2023-03-12T03:06:39;2.38;;;1.80;;
58972;SDS011;44750;52.040;7.472;2023-03-12T03:11:42;5.50;;;2.35;;
58972;SDS011;44750;52.040;7.472;2023-03-12T03:16:42;2.50;;;1.88;;
58972;SDS011;44750;52.040;7.472;2023-03-12T03:21:42;3.07;;;2.00;;
58972;SDS011;44750;52.040;7.472;2023-03-12T03:26:42;2.47;;;1.60;;
58972;SDS011;44750;52.040;7.472;2023-03-12T03:31:43;2.58;;;1.73;;
58972;SDS011;44750;52.040;7.472;2023-03-12T03:36:43;4.82;;;2.00;;
58972;SDS011;44750;52.040;7.472;2023-03-12T03:41:43;3.50;;;2.15;;
58972;SDS011;44750;52.040;7.472;2023-03-12T03:46:43;2.40;;;1.33;;
58972;SDS011;44750;52.040;7.472;2023-03-12T03:51:44;1.67;;;1.52;;
58972;SDS011;44750;52.040;7.472;2023-03-12T03:56:44;4.07;;;1.88;;
58972;SDS011;44750;52.040;7.472;2023-03-12T04:01:44;2.67;;;1.70;;
58972;SDS011;44750;52.040;7.472;2023-03-12T04:06:45;2.70;;;1.80;;
58972;SDS011;44750;52.040;7.472;2023-03-12T04:11:45;3.15;;;1.75;;
58972;SDS011;44750;52.040;7.472;2023-03-12T04:16:45;1.90;;;1.50;;
58972;SDS011;44750;52.040;7.472;2023-03-12T04:21:45;1.40;;;1.17;;
58972;SDS011;44750;52.040;7.472;2023-03-12T04:26:46;3.10;;;1.25;;
58972;SDS011;44750;52.040;7.472;2023-03-12T04:31:46;3.47;;;2.20;;
58972;SDS011;44750;52.040;7.472;2023-03-12T04:36:46;1.55;;;1.30;;
58972;SDS011;44750;52.040;7.472;2023-03-12T04:41:47;2.33;;;1.73;;
58972;SDS011;44750;52.040;7.472;2023-03-12T04:46:47;1.48;;;1.15;;
58972;SDS011;44750;52.040;7.472;2023-03-12T04:51:53;1.58;;;1.17;;
58972;SDS011;44750;52.040;7.472;2023-03-12T04:56:53;1.80;;;1.65;;
58972;SDS011;44750;52.040;7.472;2023-03-12T05:01:53;1.42;;;1.30;;
58972;SDS011;44750;52.040;7.472;2023-03-12T05:06:53;2.15;;;1.60;;
58972;SDS011;44750;52.040;7.472;2023-03-12T05:11:54;2.17;;;1.83;;
58972;SDS011;44750;52.040;7.472;2023-03-12T05:16:54;1.25;;;1.20;;
58972;SDS011;44750;52.040;7.472;2023-03-12T05:21:54;1.85;;;1.35;;
58972;SDS011;44750;52.040;7.472;2023-03-12T05:26:54;1.63;;;1.43;;
58972;SDS011;44750;52.040;7.472;2023-03-12T05:31:55;1.95;;;1.67;;
58972;SDS011;44750;52.040;7.472;2023-03-12T05:36:55;3.58;;;1.52;;
58972;SDS011;44750;52.040;7.472;2023-03-12T05:41:56;2.35;;;1.52;;
58972;SDS011;44750;52.040;7.472;2023-03-12T05:46:57;1.33;;;1.23;;
58972;SDS011;44750;52.040;7.472;2023-03-12T05:51:57;2.15;;;1.63;;
58972;SDS011;44750;52.040;7.472;2023-03-12T05:56:57;1.25;;;1.15;;
58972;SDS011;44750;52.040;7.472;2023-03-12T06:01:57;1.23;;;1.13;;
58972;SDS011;44750;52.040;7.472;2023-03-12T06:06:58;1.43;;;1.33;;
58972;SDS011;44750;52.040;7.472;2023-03-12T06:11:58;2.03;;;1.37;;
58972;SDS011;44750;52.040;7.472;2023-03-12T06:16:58;1.83;;;1.00;;
58972;SDS011;44750;52.040;7.472;2023-03-12T06:21:58;1.00;;;0.90;;
58972;SDS011;44750;52.040;7.472;2023-03-12T06:26:59;8.85;;;1.92;;
58972;SDS011;44750;52.040;7.472;2023-03-12T06:31:59;0.90;;;0.90;;
58972;SDS011;44750;52.040;7.472;2023-03-12T06:36:59;1.25;;;0.95;;
58972;SDS011;44750;52.040;7.472;2023-03-12T06:41:59;1.65;;;1.35;;
58972;SDS011;44750;52.040;7.472;2023-03-12T06:47:00;2.47;;;1.80;;
58972;SDS011;44750;52.040;7.472;2023-03-12T06:52:00;3.30;;;1.30;;
58972;SDS011;44750;52.040;7.472;2023-03-12T06:57:00;1.33;;;0.80;;
58972;SDS011;44750;52.040;7.472;2023-03-12T07:02:01;3.60;;;1.23;;
58972;SDS011;44750;52.040;7.472;2023-03-12T07:07:01;1.03;;;0.97;;
58972;SDS011;44750;52.040;7.472;2023-03-12T07:12:02;1.35;;;1.25;;
58972;SDS011;44750;52.040;7.472;2023-03-12T07:17:02;0.60;;;0.60;;
58972;SDS011;44750;52.040;7.472;2023-03-12T07:22:03;1.15;;;0.90;;
58972;SDS011;44750;52.040;7.472;2023-03-12T07:27:03;1.58;;;1.05;;
58972;SDS011;44750;52.040;7.472;2023-03-12T07:32:03;1.67;;;1.20;;
58972;SDS011;44750;52.040;7.472;2023-03-12T07:37:04;7.72;;;1.40;;
58972;SDS011;44750;52.040;7.472;2023-03-12T07:42:04;1.27;;;1.10;;
58972;SDS011;44750;52.040;7.472;2023-03-12T07:47:04;1.10;;;1.00;;
58972;SDS011;44750;52.040;7.472;2023-03-12T07:52:05;1.02;;;0.90;;
58972;SDS011;44750;52.040;7.472;2023-03-12T07:57:05;2.15;;;1.27;;
58972;SDS011;44750;52.040;7.472;2023-03-12T08:02:05;1.25;;;1.08;;
58972;SDS011;44750;52.040;7.472;2023-03-12T08:07:06;1.75;;;1.50;;
58972;SDS011;44750;52.040;7.472;2023-03-12T08:12:06;0.80;;;0.73;;
58972;SDS011;44750;52.040;7.472;2023-03-12T08:17:06;0.80;;;0.80;;
58972;SDS011;44750;52.040;7.472;2023-03-12T08:22:07;1.07;;;0.80;;
58972;SDS011;44750;52.040;7.472;2023-03-12T08:27:07;5.95;;;1.58;;
58972;SDS011;44750;52.040;7.472;2023-03-12T08:32:08;1.10;;;1.02;;
58972;SDS011;44750;52.040;7.472;2023-03-12T08:37:08;1.50;;;1.33;;
58972;SDS011;44750;52.040;7.472;2023-03-12T08:42:09;1.35;;;1.25;;
58972;SDS011;44750;52.040;7.472;2023-03-12T08:47:09;5.22;;;1.65;;
58972;SDS011;44750;52.040;7.472;2023-03-12T08:52:09;4.13;;;2.00;;
58972;SDS011;44750;52.040;7.472;2023-03-12T08:57:09;1.15;;;1.05;;
58972;SDS011;44750;52.040;7.472;2023-03-12T09:02:10;1.27;;;1.02;;
58972;SDS011;44750;52.040;7.472;2023-03-12T09:07:11;1.70;;;1.60;;
58972;SDS011;44750;52.040;7.472;2023-03-12T09:12:11;2.42;;;1.85;;
58972;SDS011;44750;52.040;7.472;2023-03-12T09:17:11;4.97;;;2.80;;
58972;SDS011;44750;52.040;7.472;2023-03-12T09:22:12;2.33;;;1.33;;
58972;SDS011;44750;52.040;7.472;2023-03-12T09:27:12;2.33;;;1.33;;
58972;SDS011;44750;52.040;7.472;2023-03-12T09:32:12;1.60;;;1.42;;
58972;SDS011;44750;52.040;7.472;2023-03-12T09:37:12;15.60;;;1.75;;
58972;SDS011;44750;52.040;7.472;2023-03-12T09:42:15;4.60;;;1.70;;
58972;SDS011;44750;52.040;7.472;2023-03-12T09:47:29;2.60;;;1.40;;
58972;SDS011;44750;52.040;7.472;2023-03-12T09:52:33;2.05;;;1.33;;
58972;SDS011;44750;52.040;7.472;2023-03-12T09:57:39;1.00;;;0.90;;
58972;SDS011;44750;52.040;7.472;2023-03-12T10:02:53;1.27;;;1.05;;
58972;SDS011;44750;52.040;7.472;2023-03-12T10:08:03;3.13;;;1.60;;
58972;SDS011;44750;52.040;7.472;2023-03-12T10:29:01;3.08;;;1.42;;
58972;SDS011;44750;52.040;7.472;2023-03-12T10:34:28;1.33;;;1.23;;
58972;SDS011;44750;52.040;7.472;2023-03-12T10:39:35;5.07;;;2.50;;
58972;SDS011;44750;52.040;7.472;2023-03-12T10:44:36;1.60;;;1.50;;
58972;SDS011;44750;52.040;7.472;2023-03-12T10:49:36;2.78;;;2.05;;
58972;SDS011;44750;52.040;7.472;2023-03-12T10:54:37;1.77;;;1.47;;
58972;SDS011;44750;52.040;7.472;2023-03-12T10:59:40;2.17;;;1.85;;
58972;SDS011;44750;52.040;7.472;2023-03-12T11:04:42;24.80;;;2.17;;
58972;SDS011;44750;52.040;7.472;2023-03-12T11:20:24;5.45;;;2.85;;
58972;SDS011;44750;52.040;7.472;2023-03-12T11:25:26;7.05;;;4.22;;
58972;SDS011;44750;52.040;7.472;2023-03-12T11:30:28;3.42;;;3.05;;
58972;SDS011;44750;52.040;7.472;2023-03-12T11:35:44;3.53;;;2.63;;
58972;SDS011;44750;52.040;7.472;2023-03-12T11:41:09;7.68;;;2.30;;
58972;SDS011;44750;52.040;7.472;2023-03-12T11:57:01;2.88;;;1.95;;
58972;SDS011;44750;52.040;7.472;2023-03-12T12:29:10;3.28;;;2.63;;
58972;SDS011;44750;52.040;7.472;2023-03-12T12:39:44;2.05;;;1.75;;
58972;SDS011;44750;52.040;7.472;2023-03-12T12:44:52;4.22;;;2.25;;
58972;SDS011;44750;52.040;7.472;2023-03-12T12:49:55;3.78;;;2.47;;
58972;SDS011;44750;52.040;7.472;2023-03-12T12:55:17;3.22;;;2.22;;
58972;SDS011;44750;52.040;7.472;2023-03-12T13:10:51;2.70;;;2.50;;
58972;SDS011;44750;52.040;7.472;2023-03-12T13:26:51;3.13;;;2.63;;
58972;SDS011;44750;52.040;7.472;2023-03-12T13:32:09;8.13;;;4.65;;
58972;SDS011;44750;52.040;7.472;2023-03-12T13:43:11;7.95;;;4.60;;
58972;SDS011;44750;52.040;7.472;2023-03-12T13:48:13;7.53;;;5.22;;
58972;SDS011;44750;52.040;7.472;2023-03-12T13:58:54;7.57;;;3.90;;
58972;SDS011;44750;52.040;7.472;2023-03-12T14:03:59;7.88;;;4.20;;
58972;SDS011;44750;52.040;7.472;2023-03-12T14:09:07;3.63;;;2.75;;
58972;SDS011;44750;52.040;7.472;2023-03-12T14:19:39;11.40;;;2.78;;
58972;SDS011;44750;52.040;7.472;2023-03-12T14:24:48;7.68;;;3.75;;
58972;SDS011;44750;52.040;7.472;2023-03-12T14:29:56;7.63;;;4.95;;
58972;SDS011;44750;52.040;7.472;2023-03-12T14:35:15;13.05;;;5.25;;
58972;SDS011;44750;52.040;7.472;2023-03-12T14:45:50;3.45;;;2.70;;
58972;SDS011;44750;52.040;7.472;2023-03-12T14:50:54;6.63;;;4.65;;
58972;SDS011;44750;52.040;7.472;2023-03-12T14:56:02;7.20;;;4.47;;
58972;SDS011;44750;52.040;7.472;2023-03-12T15:01:05;8.93;;;4.15;;
58972;SDS011;44750;52.040;7.472;2023-03-12T15:11:33;12.50;;;4.40;;
58972;SDS011;44750;52.040;7.472;2023-03-12T15:16:35;4.60;;;2.92;;
58972;SDS011;44750;52.040;7.472;2023-03-12T15:21:36;4.38;;;3.22;;
58972;SDS011;44750;52.040;7.472;2023-03-12T15:26:37;4.78;;;3.15;;
58972;SDS011;44750;52.040;7.472;2023-03-12T15:31:47;3.20;;;2.38;;
58972;SDS011;44750;52.040;7.472;2023-03-12T15:36:48;3.58;;;2.15;;
58972;SDS011;44750;52.040;7.472;2023-03-12T15:41:49;4.03;;;2.20;;
58972;SDS011;44750;52.040;7.472;2023-03-12T15:46:51;2.87;;;2.17;;
58972;SDS011;44750;52.040;7.472;2023-03-12T15:52:04;11.90;;;3.05;;
58972;SDS011;44750;52.040;7.472;2023-03-12T15:57:10;8.95;;;2.58;;
58972;SDS011;44750;52.040;7.472;2023-03-12T16:02:32;2.60;;;1.75;;
58972;SDS011;44750;52.040;7.472;2023-03-12T16:07:34;8.40;;;2.20;;
58972;SDS011;44750;52.040;7.472;2023-03-12T16:12:34;4.35;;;2.47;;
58972;SDS011;44750;52.040;7.472;2023-03-12T16:17:35;3.58;;;2.28;;
58972;SDS011;44750;52.040;7.472;2023-03-12T16:22:35;3.30;;;2.20;;
58972;SDS011;44750;52.040;7.472;2023-03-12T16:27:36;7.13;;;2.30;;
58972;SDS011;44750;52.040;7.472;2023-03-12T16:32:42;14.48;;;2.67;;
58972;SDS011;44750;52.040;7.472;2023-03-12T16:37:44;7.00;;;2.92;;
58972;SDS011;44750;52.040;7.472;2023-03-12T16:42:45;2.63;;;1.85;;
58972;SDS011;44750;52.040;7.472;2023-03-12T16:47:51;14.07;;;5.63;;
58972;SDS011;44750;52.040;7.472;2023-03-12T16:52:55;10.82;;;3.65;;
58972;SDS011;44750;52.040;7.472;2023-03-12T16:57:57;7.70;;;2.20;;
58972;SDS011;44750;52.040;7.472;2023-03-12T17:03:00;8.63;;;3.40;;
58972;SDS011;44750;52.040;7.472;2023-03-12T17:08:00;6.60;;;3.27;;
58972;SDS011;44750;52.040;7.472;2023-03-12T17:13:00;6.20;;;2.65;;
58972;SDS011;44750;52.040;7.472;2023-03-12T17:18:01;3.80;;;2.33;;
58972;SDS011;44750;52.040;7.472;2023-03-12T17:23:02;6.03;;;3.20;;
58972;SDS011;44750;52.040;7.472;2023-03-12T17:28:03;9.27;;;3.33;;
58972;SDS011;44750;52.040;7.472;2023-03-12T17:33:13;6.35;;;3.33;;
58972;SDS011;44750;52.040;7.472;2023-03-12T17:38:15;10.15;;;2.45;;
58972;SDS011;44750;52.040;7.472;2023-03-12T17:43:15;16.42;;;2.53;;
58972;SDS011;44750;52.040;7.472;2023-03-12T17:48:15;4.63;;;2.67;;
58972;SDS011;44750;52.040;7.472;2023-03-12T17:53:16;7.22;;;2.67;;
58972;SDS011;44750;52.040;7.472;2023-03-12T17:58:16;8.30;;;4.30;;
58972;SDS011;44750;52.040;7.472;2023-03-12T18:03:17;4.68;;;2.63;;
58972;SDS011;44750;52.040;7.472;2023-03-12T18:08:17;9.85;;;3.03;;
58972;SDS011;44750;52.040;7.472;2023-03-12T18:13:17;10.65;;;5.32;;
58972;SDS011;44750;52.040;7.472;2023-03-12T18:18:17;17.58;;;4.93;;
58972;SDS011;44750;52.040;7.472;2023-03-12T18:23:18;14.13;;;3.95;;
58972;SDS011;44750;52.040;7.472;2023-03-12T18:28:18;6.53;;;3.55;;
58972;SDS011;44750;52.040;7.472;2023-03-12T18:33:18;9.20;;;4.88;;
58972;SDS011;44750;52.040;7.472;2023-03-12T18:38:18;4.28;;;2.90;;
58972;SDS011;44750;52.040;7.472;2023-03-12T18:43:19;4.25;;;3.28;;
58972;SDS011;44750;52.040;7.472;2023-03-12T18:48:19;5.32;;;3.22;;
58972;SDS011;44750;52.040;7.472;2023-03-12T18:53:19;6.03;;;3.17;;
58972;SDS011;44750;52.040;7.472;2023-03-12T18:58:20;6.25;;;3.05;;
58972;SDS011;44750;52.040;7.472;2023-03-12T19:03:20;15.30;;;4.00;;
58972;SDS011;44750;52.040;7.472;2023-03-12T19:08:21;8.10;;;4.13;;
58972;SDS011;44750;52.040;7.472;2023-03-12T19:13:21;14.95;;;3.60;;
58972;SDS011;44750;52.040;7.472;2023-03-12T19:18:21;9.63;;;4.80;;
58972;SDS011;44750;52.040;7.472;2023-03-12T19:23:21;14.57;;;3.47;;
58972;SDS011;44750;52.040;7.472;2023-03-12T19:28:22;5.00;;;3.15;;
58972;SDS011;44750;52.040;7.472;2023-03-12T19:33:22;13.88;;;5.18;;
58972;SDS011;44750;52.040;7.472;2023-03-12T19:38:22;11.70;;;3.70;;
58972;SDS011;44750;52.040;7.472;2023-03-12T19:43:23;16.87;;;5.03;;
58972;SDS011;44750;52.040;7.472;2023-03-12T19:48:23;9.98;;;3.15;;
58972;SDS011;44750;52.040;7.472;2023-03-12T19:53:23;4.18;;;3.00;;
58972;SDS011;44750;52.040;7.472;2023-03-12T19:58:24;4.33;;;2.63;;
58972;SDS011;44750;52.040;7.472;2023-03-12T20:03:24;3.27;;;2.40;;
58972;SDS011;44750;52.040;7.472;2023-03-12T20:08:25;4.70;;;2.42;;
58972;SDS011;44750;52.040;7.472;2023-03-12T20:13:26;10.57;;;2.45;;
58972;SDS011;44750;52.040;7.472;2023-03-12T20:18:26;9.52;;;3.05;;
58972;SDS011;44750;52.040;7.472;2023-03-12T20:23:26;5.35;;;2.17;;
58972;SDS011;44750;52.040;7.472;2023-03-12T20:28:26;12.50;;;2.35;;
58972;SDS011;44750;52.040;7.472;2023-03-12T20:33:27;9.57;;;2.78;;
58972;SDS011;44750;52.040;7.472;2023-03-12T20:38:27;5.88;;;2.58;;
58972;SDS011;44750;52.040;7.472;2023-03-12T20:43:27;11.38;;;2.92;;
58972;SDS011;44750;52.040;7.472;2023-03-12T20:48:28;5.35;;;1.80;;
58972;SDS011;44750;52.040;7.472;2023-03-12T20:53:28;1.85;;;1.65;;
58972;SDS011;44750;52.040;7.472;2023-03-12T20:58:28;4.40;;;1.98;;
58972;SDS011;44750;52.040;7.472;2023-03-12T21:03:29;6.90;;;2.42;;
58972;SDS011;44750;52.040;7.472;2023-03-12T21:08:29;5.97;;;2.07;;
58972;SDS011;44750;52.040;7.472;2023-03-12T21:13:29;8.25;;;2.35;;
58972;SDS011;44750;52.040;7.472;2023-03-12T21:18:29;10.27;;;3.65;;
58972;SDS011;44750;52.040;7.472;2023-03-12T21:23:30;7.30;;;1.55;;
58972;SDS011;44750;52.040;7.472;2023-03-12T21:28:31;4.00;;;1.65;;
58972;SDS011;44750;52.040;7.472;2023-03-12T21:33:31;4.45;;;1.98;;
58972;SDS011;44750;52.040;7.472;2023-03-12T21:38:35;7.13;;;2.63;;
58972;SDS011;44750;52.040;7.472;2023-03-12T21:43:37;14.48;;;2.65;;
58972;SDS011;44750;52.040;7.472;2023-03-12T21:48:37;2.28;;;1.52;;
58972;SDS011;44750;52.040;7.472;2023-03-12T21:53:38;6.72;;;2.50;;
58972;SDS011;44750;52.040;7.472;2023-03-12T21:58:38;4.65;;;2.33;;
58972;SDS011;44750;52.040;7.472;2023-03-12T22:03:39;10.32;;;2.75;;
58972;SDS011;44750;52.040;7.472;2023-03-12T22:08:41;4.13;;;2.28;;
58972;SDS011;44750;52.040;7.472;2023-03-12T22:13:42;3.50;;;1.65;;
58972;SDS011;44750;52.040;7.472;2023-03-12T22:18:43;4.32;;;2.28;;
58972;SDS011;44750;52.040;7.472;2023-03-12T22:23:45;4.43;;;2.42;;
58972;SDS011;44750;52.040;7.472;2023-03-12T22:28:49;1.83;;;1.45;;
58972;SDS011;44750;52.040;7.472;2023-03-12T22:33:52;8.13;;;1.80;;
58972;SDS011;44750;52.040;7.472;2023-03-12T22:38:56;2.70;;;1.67;;
58972;SDS011;44750;52.040;7.472;2023-03-12T22:44:00;4.90;;;1.98;;
58972;SDS011;44750;52.040;7.472;2023-03-12T22:49:02;2.25;;;1.40;;
58972;SDS011;44750;52.040;7.472;2023-03-12T22:54:03;15.52;;;3.40;;
58972;SDS011;44750;52.040;7.472;2023-03-12T22:59:03;4.70;;;2.22;;
58972;SDS011;44750;52.040;7.472;2023-03-12T23:04:04;2.67;;;1.67;;
58972;SDS011;44750;52.040;7.472;2023-03-12T23:09:04;2.33;;;1.90;;
58972;SDS011;44750;52.040;7.472;2023-03-12T23:14:04;13.82;;;2.70;;
58972;SDS011;44750;52.040;7.472;2023-03-12T23:19:04;4.53;;;2.15;;
58972;SDS011;44750;52.040;7.472;2023-03-12T23:24:05;9.27;;;3.15;;
58972;SDS011;44750;52.040;7.472;2023-03-12T23:29:05;3.90;;;2.13;;
58972;SDS011;44750;52.040;7.472;2023-03-12T23:34:06;12.02;;;3.40;;
58972;SDS011;44750;52.040;7.472;2023-03-12T23:39:08;4.93;;;2.38;;
58972;SDS011;44750;52.040;7.472;2023-03-12T23:44:08;3.07;;;1.63;;
58972;SDS011;44750;52.040;7.472;2023-03-12T23:49:09;6.27;;;1.87;;
58972;SDS011;44750;52.040;7.472;2023-03-12T23:54:09;10.07;;;1.85;;
58972;SDS011;44750;52.040;7.472;2023-03-12T23:59:10;7.65;;;2.47;;
